Time;durP1;ratioP1;P1;durP2;ratioP2;P2;SDS_P1;SDS_P2;PMS_P1;PMS_P2;Temp;Humidity;BMP_temperature;BMP_pressure;BME280_temperature;BME280_humidity;BME280_pressure;Samples;Min_cycle;Max_cycle;Signal;HPM_P1;HPM_P2
2023/05/30 00:01:42;;;;;;;4.95;3.28;;;24.70;52.10;;;;;;5108932;28;20070;-73
2023/05/30 00:04:08;;;;;;;6.10;3.35;;;24.60;52.30;;;;;;5091251;28;20048;-72
2023/05/30 00:06:34;;;;;;;5.07;3.13;;;24.70;52.40;;;;;;5091434;28;20036;-73
2023/05/30 00:09:01;;;;;;;9.00;3.38;;;24.50;52.40;;;;;;5095825;28;20031;-73
2023/05/30 00:11:28;;;;;;;6.72;3.33;;;24.70;52.30;;;;;;5095490;28;20029;-75
2023/05/30 00:13:58;;;;;;;4.82;3.50;;;24.70;52.30;;;;;;5095096;28;20032;-74
2023/05/30 00:16:24;;;;;;;4.82;3.13;;;24.70;52.40;;;;;;5095539;28;20044;-74
2023/05/30 00:18:52;;;;;;;7.72;4.00;;;24.70;52.50;;;;;;5095299;28;20028;-74
2023/05/30 00:21:18;;;;;;;8.05;3.28;;;24.70;52.50;;;;;;5095317;28;20044;-74
2023/05/30 00:23:45;;;;;;;5.82;3.22;;;24.80;52.50;;;;;;5095113;28;20742;-75
2023/05/30 00:26:12;;;;;;;4.93;2.75;;;24.70;52.50;;;;;;5095158;28;20055;-75
2023/05/30 00:28:44;;;;;;;;;;;24.80;52.50;;;;;;5095518;28;20089;-74
2023/05/30 00:31:10;;;;;;;11.80;3.22;;;24.70;52.50;;;;;;5093838;28;20329;-74
2023/05/30 00:33:35;;;;;;;7.15;3.65;;;24.60;52.40;;;;;;5095087;28;20050;-73
2023/05/30 00:36:02;;;;;;;5.93;2.83;;;24.70;52.50;;;;;;5095179;28;20039;-74
2023/05/30 00:38:28;;;;;;;10.18;3.53;;;24.80;52.50;;;;;;5093552;28;20046;-74
2023/05/30 00:40:53;;;;;;;5.60;3.15;;;24.70;52.60;;;;;;5093504;28;20024;-74
2023/05/30 00:43:19;;;;;;;5.35;3.22;;;24.60;52.40;;;;;;5094594;28;20074;-74
2023/05/30 00:45:49;;;;;;;7.75;3.33;;;24.70;52.50;;;;;;5094967;28;20036;-74
2023/05/30 00:48:16;;;;;;;7.45;3.03;;;24.70;52.50;;;;;;5094871;28;20508;-74
2023/05/30 00:50:42;;;;;;;7.10;3.47;;;24.70;52.60;;;;;;5093267;28;20039;-74
2023/05/30 00:53:08;;;;;;;7.05;3.35;;;24.50;52.40;;;;;;5094548;28;20044;-73
2023/05/30 00:55:35;;;;;;;3.90;3.00;;;24.60;52.50;;;;;;5094484;28;20036;-74
2023/05/30 00:58:01;;;;;;;5.28;3.15;;;24.50;52.40;;;;;;5094622;28;20059;-74
2023/05/30 01:00:27;;;;;;;6.68;3.03;;;24.50;52.50;;;;;;5094730;28;20384;-74
2023/05/30 01:03:00;;;;;;;6.38;3.05;;;24.60;52.40;;;;;;5091537;28;20547;-73
2023/05/30 01:05:27;;;;;;;4.72;3.10;;;24.60;52.40;;;;;;5075109;28;20076;-74
2023/05/30 01:07:53;;;;;;;7.90;3.78;;;24.60;52.30;;;;;;5091979;28;20044;-74
2023/05/30 01:10:21;;;;;;;6.82;3.10;;;24.50;52.40;;;;;;5074906;28;20040;-74
2023/05/30 01:13:22;;;;;;;7.03;3.30;;;24.50;52.50;;;;;;5074917;28;20620;-74
2023/05/30 01:16:03;;;;;;;4.13;2.95;;;24.40;52.50;;;;;;5075009;28;20387;-74
2023/05/30 01:19:01;;;;;;;3.83;2.75;;;24.50;52.60;;;;;;5091260;28;20048;-74
2023/05/30 01:21:31;;;;;;;5.75;2.78;;;24.40;52.50;;;;;;5014843;28;20072;-75
2023/05/30 01:24:31;;;;;;;3.72;2.70;;;24.50;52.50;;;;;;5014058;28;20486;-74
2023/05/30 01:27:04;;;;;;;8.30;3.97;;;24.50;52.50;;;;;;5031260;28;20060;-74
2023/05/30 01:29:30;;;;;;;;;;;24.30;52.30;;;;;;5031824;28;20061;-73
2023/05/30 01:31:58;;;;;;;7.25;2.80;;;24.40;52.30;;;;;;5031564;28;20383;-74
2023/05/30 01:34:24;;;;;;;6.20;2.63;;;24.40;52.20;;;;;;5045232;28;20563;-74
2023/05/30 01:36:51;;;;;;;5.85;2.80;;;24.50;52.30;;;;;;5051152;28;20036;-74
2023/05/30 01:39:17;;;;;;;7.57;3.25;;;24.50;52.30;;;;;;5050946;28;20524;-74
2023/05/30 01:42:14;;;;;;;8.93;3.00;;;24.60;52.30;;;;;;5034420;28;20088;-74
2023/05/30 01:44:53;;;;;;;4.22;2.85;;;24.50;52.30;;;;;;5030537;28;20058;-74
2023/05/30 01:47:51;;;;;;;6.78;3.03;;;24.40;52.20;;;;;;5030966;28;20132;-75
2023/05/30 01:50:23;;;;;;;7.80;3.50;;;24.50;52.40;;;;;;4933550;29;20055;-73
2023/05/30 01:52:58;;;;;;;10.77;3.42;;;24.60;52.30;;;;;;4933200;29;20395;-73
2023/05/30 01:55:27;;;;;;;4.65;3.05;;;24.50;52.30;;;;;;4917559;29;20055;-74
2023/05/30 01:57:55;;;;;;;12.05;3.42;;;24.40;52.20;;;;;;4930830;28;20046;-74
2023/05/30 02:00:26;;;;;;;5.68;2.45;;;24.30;52.20;;;;;;4952274;29;20558;-74
2023/05/30 02:02:52;;;;;;;6.88;2.70;;;24.30;52.20;;;;;;4938739;29;20051;-74
2023/05/30 02:05:18;;;;;;;8.65;2.72;;;24.50;52.30;;;;;;4952422;29;20125;-73
2023/05/30 02:07:44;;;;;;;8.23;3.03;;;24.40;52.20;;;;;;4952424;29;20035;-74
2023/05/30 02:10:10;;;;;;;4.63;3.00;;;24.40;52.20;;;;;;4952370;29;20078;-74
2023/05/30 02:12:46;;;;;;;3.47;2.90;;;24.40;52.20;;;;;;4952466;29;20066;-74
2023/05/30 02:15:12;;;;;;;6.00;2.38;;;24.50;52.30;;;;;;4958191;28;20106;-74
2023/05/30 02:17:38;;;;;;;9.05;3.00;;;24.30;52.20;;;;;;4955309;28;20051;-73
2023/05/30 02:20:05;;;;;;;5.60;2.75;;;24.40;52.20;;;;;;4971502;28;20055;-74
2023/05/30 02:22:39;;;;;;;3.78;2.97;;;24.40;52.20;;;;;;5010248;28;20065;-74
2023/05/30 02:25:09;;;;;;;5.53;3.08;;;24.30;52.30;;;;;;5010306;28;20120;-74
2023/05/30 02:27:35;;;;;;;5.13;2.90;;;24.30;52.20;;;;;;5033843;28;20045;-74
2023/05/30 02:30:01;;;;;;;6.07;3.15;;;24.30;52.30;;;;;;5069538;28;20568;-74
2023/05/30 02:32:28;;;;;;;4.30;3.10;;;24.30;52.30;;;;;;5053450;28;20158;-74
2023/05/30 02:34:54;;;;;;;5.03;3.00;;;24.30;52.40;;;;;;5069783;28;20033;-74
2023/05/30 02:37:20;;;;;;;3.58;2.60;;;24.30;52.30;;;;;;5070590;28;20123;-74
2023/05/30 02:39:46;;;;;;;5.15;3.30;;;24.30;52.30;;;;;;5072232;28;20067;-74
2023/05/30 02:42:12;;;;;;;5.05;3.17;;;24.20;52.30;;;;;;5071252;28;20034;-74
2023/05/30 02:44:38;;;;;;;9.70;3.33;;;24.30;52.40;;;;;;5070645;28;20037;-74
2023/05/30 02:47:05;;;;;;;4.68;3.15;;;24.30;52.30;;;;;;5087860;28;20036;-74
2023/05/30 02:49:31;;;;;;;4.05;3.10;;;24.20;52.20;;;;;;5070892;28;20490;-74
2023/05/30 02:51:58;;;;;;;5.82;2.85;;;24.30;52.30;;;;;;5070707;28;20033;-74
2023/05/30 02:54:31;;;;;;;6.82;3.08;;;24.30;52.30;;;;;;5069939;28;20040;-74
2023/05/30 02:57:16;;;;;;;4.85;3.05;;;24.30;52.30;;;;;;5071836;28;20036;-73
2023/05/30 03:00:02;;;;;;;6.57;3.40;;;24.30;52.30;;;;;;5072787;28;20506;-74
2023/05/30 03:02:29;;;;;;;5.30;3.25;;;24.20;52.10;;;;;;5070341;28;20039;-73
2023/05/30 03:04:55;;;;;;;12.05;3.22;;;24.40;52.20;;;;;;5069905;28;20048;-74
2023/05/30 03:07:22;;;;;;;6.00;3.40;;;24.30;52.10;;;;;;5087672;28;20036;-74
2023/05/30 03:09:49;;;;;;;6.43;3.50;;;24.30;52.20;;;;;;5070207;28;20029;-73
2023/05/30 03:12:15;;;;;;;6.85;3.85;;;24.30;52.10;;;;;;5053975;28;20047;-74
2023/05/30 03:14:41;;;;;;;6.82;3.45;;;24.30;52.10;;;;;;5083327;28;20036;-74
2023/05/30 03:17:08;;;;;;;7.18;3.85;;;24.40;52.10;;;;;;5091488;28;20028;-73
2023/05/30 03:19:34;;;;;;;8.77;3.38;;;24.30;52.10;;;;;;5090707;28;20036;-74
2023/05/30 03:22:04;;;;;;;8.07;3.70;;;24.40;52.10;;;;;;5090685;28;20036;-74
2023/05/30 03:24:29;;;;;;;7.07;2.88;;;24.30;52.00;;;;;;5091829;28;20051;-74
2023/05/30 03:26:55;;;;;;;6.18;3.40;;;24.40;52.10;;;;;;5091568;28;20032;-74
2023/05/30 03:29:22;;;;;;;5.88;3.58;;;24.30;52.10;;;;;;5090465;28;20556;-74
2023/05/30 03:31:49;;;;;;;5.38;3.25;;;24.30;52.10;;;;;;5090315;28;20032;-74
2023/05/30 03:34:16;;;;;;;5.00;2.88;;;24.30;52.10;;;;;;5090264;28;20454;-73
2023/05/30 03:36:45;;;;;;;4.30;2.75;;;24.30;52.10;;;;;;5090386;28;20110;-74
2023/05/30 03:39:12;;;;;;;4.55;3.25;;;24.40;52.00;;;;;;5091981;28;20036;-74
2023/05/30 03:41:39;;;;;;;7.28;4.15;;;24.20;51.90;;;;;;5090801;28;20115;-74
2023/05/30 03:44:05;;;;;;;6.07;3.08;;;24.20;51.90;;;;;;5089940;28;20067;-74
2023/05/30 03:46:32;;;;;;;11.32;3.63;;;24.30;52.00;;;;;;5090481;28;20047;-74
2023/05/30 03:48:58;;;;;;;12.48;3.83;;;24.30;51.90;;;;;;5090389;28;20110;-73
2023/05/30 03:51:24;;;;;;;8.85;3.88;;;24.40;51.90;;;;;;5090188;28;20043;-73
2023/05/30 03:53:50;;;;;;;18.38;3.63;;;24.30;51.90;;;;;;5089794;28;20468;-77
2023/05/30 03:56:19;;;;;;;5.93;2.92;;;24.30;52.10;;;;;;5090120;28;20057;-71
2023/05/30 03:58:45;;;;;;;6.68;2.70;;;24.30;51.90;;;;;;5089124;28;20036;-71
2023/05/30 04:01:12;;;;;;;8.50;3.03;;;24.40;51.50;;;;;;5091237;28;20368;-72
2023/05/30 04:03:38;;;;;;;4.90;3.35;;;24.50;50.70;;;;;;5089650;28;20475;-71
2023/05/30 04:06:08;;;;;;;10.45;3.63;;;24.70;49.70;;;;;;5087486;28;20043;-71
2023/05/30 04:08:36;;;;;;;7.78;3.15;;;24.60;48.10;;;;;;5070271;28;20068;-72
2023/05/30 04:11:03;;;;;;;5.57;2.97;;;24.60;47.20;;;;;;5069723;28;20111;-71
2023/05/30 04:13:34;;;;;;;6.30;2.78;;;24.70;46.50;;;;;;5069258;28;20048;-73
2023/05/30 04:16:01;;;;;;;7.35;3.30;;;24.70;46.00;;;;;;5086303;28;20476;-72
2023/05/30 04:18:27;;;;;;;8.27;4.07;;;24.80;45.20;;;;;;5071072;28;20190;-71
2023/05/30 04:20:55;;;;;;;8.38;3.70;;;24.70;46.00;;;;;;5086721;28;20036;-69
2023/05/30 04:23:22;;;;;;;6.55;3.40;;;24.90;47.20;;;;;;5069635;28;20056;-69
2023/05/30 04:25:48;;;;;;;8.68;4.32;;;25.20;50.90;;;;;;5086263;28;20283;-68
2023/05/30 04:28:19;;;;;;;8.60;3.88;;;25.40;52.00;;;;;;5086479;28;20039;-70
2023/05/30 04:30:49;;;;;;;13.70;3.97;;;25.50;47.30;;;;;;5069566;28;20377;-71
2023/05/30 04:33:17;;;;;;;9.05;4.53;;;25.50;47.10;;;;;;5069812;28;20549;-70
2023/05/30 04:35:44;;;;;;;9.32;3.80;;;25.40;46.30;;;;;;5069370;28;20048;-70
2023/05/30 04:38:19;;;;;;;13.07;4.07;;;25.50;45.90;;;;;;5086356;28;20032;-70
2023/05/30 04:40:50;;;;;;;7.38;3.90;;;25.50;45.80;;;;;;5085988;28;20037;-70
2023/05/30 04:43:19;;;;;;;7.00;3.53;;;25.40;45.60;;;;;;5086452;28;20050;-70
2023/05/30 04:45:49;;;;;;;6.47;3.00;;;25.50;45.50;;;;;;5069370;28;20134;-70
2023/05/30 04:48:15;;;;;;;7.40;3.53;;;25.40;45.30;;;;;;5069531;28;20402;-70
2023/05/30 04:50:46;;;;;;;9.80;4.10;;;25.50;45.20;;;;;;5086183;28;20025;-70
2023/05/30 04:53:17;;;;;;;9.43;3.85;;;25.50;45.10;;;;;;5071454;28;20464;-70
2023/05/30 04:55:44;;;;;;;7.45;4.03;;;25.50;45.00;;;;;;5090226;28;20409;-71
2023/05/30 04:58:15;;;;;;;10.70;2.97;;;25.40;44.90;;;;;;5073120;28;20512;-70
2023/05/30 05:00:41;;;;;;;9.38;3.60;;;25.50;44.80;;;;;;5074243;28;20060;-70
2023/05/30 05:03:07;;;;;;;4.95;2.97;;;25.50;44.40;;;;;;5074184;28;20037;-70
2023/05/30 05:05:34;;;;;;;11.50;3.78;;;25.40;43.00;;;;;;5073837;28;20037;-71
2023/05/30 05:08:01;;;;;;;9.55;3.17;;;25.40;42.20;;;;;;5089669;28;20036;-71
2023/05/30 05:10:27;;;;;;;7.00;3.20;;;25.60;41.50;;;;;;5089851;28;20032;-69
2023/05/30 05:12:53;;;;;;;3.38;2.08;;;25.60;40.90;;;;;;5072698;28;20046;-69
2023/05/30 05:15:19;;;;;;;6.07;2.97;;;25.60;41.70;;;;;;5089604;28;20032;-69
2023/05/30 05:17:45;;;;;;;6.82;2.85;;;25.60;42.00;;;;;;5073801;28;20037;-69
2023/05/30 05:20:12;;;;;;;6.00;3.30;;;25.50;42.10;;;;;;5090671;28;20111;-69
2023/05/30 05:22:38;;;;;;;5.55;3.80;;;25.60;42.60;;;;;;5094139;28;20040;-70
2023/05/30 05:25:04;;;;;;;4.43;2.10;;;25.70;43.50;;;;;;5093676;28;20114;-69
2023/05/30 05:27:31;;;;;;;7.45;3.65;;;25.60;43.10;;;;;;5092889;28;20032;-69
2023/05/30 05:29:57;;;;;;;8.35;2.65;;;25.60;44.40;;;;;;5093987;28;20036;-69
2023/05/30 05:32:23;;;;;;;3.03;2.58;;;25.70;43.50;;;;;;5093871;28;20036;-68
2023/05/30 05:34:49;;;;;;;6.25;3.60;;;25.70;43.70;;;;;;5093603;28;20028;-69
2023/05/30 05:37:15;;;;;;;2.92;2.40;;;25.70;43.90;;;;;;5093866;28;20480;-70
2023/05/30 05:39:41;;;;;;;2.60;1.92;;;25.70;43.50;;;;;;5092478;28;20165;-69
2023/05/30 05:42:07;;;;;;;7.35;3.13;;;25.50;43.70;;;;;;5093946;28;20036;-69
2023/05/30 05:44:34;;;;;;;6.20;3.42;;;25.70;44.60;;;;;;5070585;28;20056;-70
2023/05/30 05:47:00;;;;;;;9.68;3.83;;;25.70;45.10;;;;;;5070864;28;20045;-70
2023/05/30 05:49:26;;;;;;;5.07;2.63;;;25.70;43.70;;;;;;5070948;28;20053;-70
2023/05/30 05:51:53;;;;;;;7.28;2.42;;;25.70;43.50;;;;;;5054126;28;20080;-70
2023/05/30 05:54:19;;;;;;;6.22;3.00;;;25.70;43.30;;;;;;5071184;28;20111;-70
2023/05/30 05:56:46;;;;;;;5.25;2.92;;;25.70;43.20;;;;;;5070785;28;20029;-70
2023/05/30 05:59:12;;;;;;;5.00;2.63;;;25.70;43.10;;;;;;5070490;28;20158;-70
2023/05/30 06:01:39;;;;;;;2.13;1.63;;;25.70;43.00;;;;;;5070624;28;20444;-72
2023/05/30 06:04:11;;;;;;;8.38;2.75;;;25.70;42.90;;;;;;5037022;28;20043;-70
2023/05/30 06:06:38;;;;;;;6.50;2.75;;;25.60;42.50;;;;;;5069771;28;20045;-70
2023/05/30 06:09:04;;;;;;;6.93;3.80;;;25.70;43.20;;;;;;5053538;28;20049;-69
2023/05/30 06:11:30;;;;;;;3.53;3.22;;;25.60;44.40;;;;;;5070325;28;20074;-70
2023/05/30 06:13:56;;;;;;;8.00;4.63;;;25.60;44.60;;;;;;5070283;28;20121;-72
2023/05/30 06:16:22;;;;;;;6.22;4.15;;;25.70;46.00;;;;;;5070075;28;20476;-71
2023/05/30 06:18:48;;;;;;;9.52;3.92;;;25.70;44.90;;;;;;5070173;28;20039;-71
2023/05/30 06:21:14;;;;;;;10.85;4.82;;;25.60;44.40;;;;;;5074521;28;20044;-72
2023/05/30 06:23:40;;;;;;;14.98;4.57;;;25.70;43.20;;;;;;5089888;28;20121;-71
2023/05/30 06:26:06;;;;;;;7.00;3.50;;;25.60;43.30;;;;;;5090178;28;20048;-71
2023/05/30 06:28:32;;;;;;;5.47;3.47;;;25.60;43.40;;;;;;5090263;28;20054;-70
2023/05/30 06:30:58;;;;;;;7.32;3.95;;;25.50;43.30;;;;;;5090195;28;20032;-69
2023/05/30 06:33:25;;;;;;;10.35;3.60;;;25.70;43.80;;;;;;5082330;28;20411;-69
2023/05/30 06:35:51;;;;;;;7.90;4.13;;;25.50;44.00;;;;;;5086224;28;20066;-69
2023/05/30 06:38:17;;;;;;;6.93;3.78;;;25.50;43.80;;;;;;5090104;28;20496;-70
2023/05/30 06:40:43;;;;;;;8.38;3.58;;;25.60;45.80;;;;;;5085907;28;20068;-70
2023/05/30 06:43:09;;;;;;;6.65;3.67;;;25.40;45.00;;;;;;5069714;28;20520;-71
2023/05/30 06:45:35;;;;;;;8.32;4.30;;;25.60;44.60;;;;;;5069536;28;20041;-71
2023/05/30 06:48:01;;;;;;;7.00;4.32;;;25.60;44.80;;;;;;5069615;28;20044;-70
2023/05/30 06:50:28;;;;;;;9.68;4.38;;;25.50;44.90;;;;;;5066772;28;20048;-70
2023/05/30 06:52:54;;;;;;;7.93;4.03;;;25.60;44.70;;;;;;5073000;28;20175;-69
2023/05/30 06:55:20;;;;;;;4.80;3.17;;;25.50;44.90;;;;;;5082904;28;20412;-70
2023/05/30 06:57:48;;;;;;;7.05;3.38;;;25.60;44.90;;;;;;5071906;28;20041;-71
2023/05/30 07:00:15;;;;;;;7.22;3.70;;;25.60;45.10;;;;;;5054107;28;20063;-71
2023/05/30 07:02:41;;;;;;;6.85;3.72;;;25.60;45.20;;;;;;5071987;28;20029;-71
2023/05/30 07:05:07;;;;;;;5.43;3.45;;;25.60;45.00;;;;;;5070465;28;20131;-71
2023/05/30 07:07:34;;;;;;;5.30;3.70;;;25.60;44.90;;;;;;5084861;28;20050;-70
2023/05/30 07:10:00;;;;;;;4.97;3.28;;;25.60;44.70;;;;;;5092012;28;20047;-71
2023/05/30 07:12:26;;;;;;;14.95;3.78;;;25.70;44.50;;;;;;5091900;28;20035;-72
2023/05/30 07:14:52;;;;;;;6.60;3.10;;;25.60;44.30;;;;;;5091872;28;20016;-71
2023/05/30 07:17:18;;;;;;;6.85;3.30;;;25.70;44.10;;;;;;5091423;28;20404;-71
2023/05/30 07:19:44;;;;;;;9.20;3.13;;;25.80;44.20;;;;;;5089946;28;20024;-70
2023/05/30 07:22:10;;;;;;;6.65;2.60;;;25.60;44.30;;;;;;5090529;28;20028;-72
2023/05/30 07:24:36;;;;;;;10.75;3.25;;;25.70;44.20;;;;;;5090298;28;20052;-71
2023/05/30 07:27:02;;;;;;;6.82;3.05;;;25.70;44.30;;;;;;5091652;28;20417;-70
2023/05/30 07:29:28;;;;;;;5.65;2.90;;;25.60;44.30;;;;;;5091606;28;20629;-71
2023/05/30 07:31:54;;;;;;;11.35;3.08;;;25.90;44.20;;;;;;5091545;28;20111;-71
2023/05/30 07:34:20;;;;;;;8.15;3.15;;;25.80;43.60;;;;;;5091770;28;20094;-71
2023/05/30 07:36:46;;;;;;;7.70;3.15;;;25.80;43.60;;;;;;5091724;28;20078;-70
2023/05/30 07:39:12;;;;;;;8.75;2.88;;;25.70;43.50;;;;;;5091775;28;20040;-71
2023/05/30 07:41:38;;;;;;;4.30;2.65;;;25.70;44.00;;;;;;5091332;28;20361;-71
2023/05/30 07:44:04;;;;;;;9.55;2.75;;;25.60;43.50;;;;;;5091316;28;20036;-70
2023/05/30 07:46:30;;;;;;;6.82;3.13;;;25.60;44.10;;;;;;5091343;28;20032;-71
2023/05/30 07:48:56;;;;;;;5.55;2.70;;;25.60;44.10;;;;;;5091506;28;20036;-71
2023/05/30 07:51:22;;;;;;;4.10;2.72;;;25.70;44.40;;;;;;5091375;28;20036;-71
2023/05/30 07:53:48;;;;;;;3.58;2.08;;;25.60;44.50;;;;;;5091609;28;20178;-73
2023/05/30 07:56:14;;;;;;;3.35;2.28;;;25.50;47.50;;;;;;5091291;28;20129;-72
2023/05/30 07:58:40;;;;;;;4.20;2.17;;;25.90;48.70;;;;;;5091176;28;20040;-69
2023/05/30 08:01:06;;;;;;;6.72;2.90;;;26.20;49.50;;;;;;5090342;28;20108;-71
2023/05/30 08:03:32;;;;;;;3.08;2.83;;;26.50;48.10;;;;;;5088845;28;20436;-74
2023/05/30 08:05:58;;;;;;;4.18;1.77;;;26.70;46.30;;;;;;5090852;28;20347;-72
2023/05/30 08:08:25;;;;;;;4.65;2.78;;;26.50;46.40;;;;;;5091125;28;20032;-71
2023/05/30 08:10:51;;;;;;;8.68;3.03;;;26.40;46.80;;;;;;5084093;28;20075;-71
2023/05/30 08:13:18;;;;;;;4.70;2.28;;;26.30;46.50;;;;;;5070642;28;20067;-72
2023/05/30 08:15:44;;;;;;;1.73;1.58;;;26.40;48.40;;;;;;5070920;28;20397;-71
2023/05/30 08:18:11;;;;;;;3.92;1.98;;;26.30;48.20;;;;;;5070885;28;20041;-71
2023/05/30 08:20:37;;;;;;;2.90;2.33;;;26.30;48.10;;;;;;5070842;28;20068;-72
2023/05/30 08:23:03;;;;;;;5.65;2.38;;;26.30;49.60;;;;;;5070594;28;20045;-72
2023/05/30 08:25:33;;;;;;;3.58;2.13;;;26.50;52.70;;;;;;5070788;28;20077;-73
2023/05/30 08:28:00;;;;;;;4.55;2.85;;;26.60;49.60;;;;;;5071572;28;20040;-73
2023/05/30 08:30:26;;;;;;;3.55;2.53;;;26.60;50.20;;;;;;5074664;28;20060;-72
2023/05/30 08:32:52;;;;;;;5.82;1.58;;;26.60;49.90;;;;;;5074782;28;20070;-73
2023/05/30 08:35:18;;;;;;;3.03;2.08;;;26.60;50.20;;;;;;5074777;28;20106;-73
2023/05/30 08:37:44;;;;;;;2.78;1.83;;;26.50;49.10;;;;;;5074769;28;20176;-72
2023/05/30 08:40:12;;;;;;;2.20;1.85;;;26.70;49.10;;;;;;5076128;28;20056;-72
2023/05/30 08:42:41;;;;;;;4.18;2.10;;;26.70;61.40;;;;;;5095211;28;20040;-74
2023/05/30 08:45:08;;;;;;;3.00;2.20;;;26.70;49.60;;;;;;5094982;28;20110;-73
2023/05/30 08:47:35;;;;;;;2.53;1.98;;;26.60;51.10;;;;;;5095141;28;20040;-73
2023/05/30 08:50:07;;;;;;;4.78;2.75;;;26.70;52.00;;;;;;5094662;28;20407;-72
2023/05/30 08:52:33;;;;;;;5.72;2.53;;;26.70;50.60;;;;;;5094525;28;20024;-73
2023/05/30 08:55:07;;;;;;;16.08;4.18;;;26.80;49.80;;;;;;5094141;28;20096;-73
2023/05/30 08:58:00;;;;;;;9.68;3.40;;;26.60;47.70;;;;;;5094254;28;20399;-72
2023/05/30 09:00:26;;;;;;;46.53;12.75;;;26.70;48.20;;;;;;5094383;28;20471;-75
2023/05/30 09:02:57;;;;;;;21.20;4.80;;;26.80;48.40;;;;;;5094483;28;20032;-72
2023/05/30 09:05:24;;;;;;;10.80;3.53;;;26.90;47.80;;;;;;5094217;28;20083;-73
2023/05/30 09:07:52;;;;;;;12.30;2.90;;;27.10;48.60;;;;;;5094534;28;20433;-73
2023/05/30 09:10:19;;;;;;;5.38;3.17;;;27.00;47.20;;;;;;5094296;28;20403;-73
2023/05/30 09:12:45;;;;;;;4.38;3.00;;;27.20;50.10;;;;;;5094225;28;20165;-72
2023/05/30 09:15:11;;;;;;;5.88;2.90;;;27.60;50.30;;;;;;5094370;28;20336;-75
2023/05/30 09:17:37;;;;;;;3.38;2.80;;;27.70;46.30;;;;;;5094084;28;20028;-75
2023/05/30 09:20:06;;;;;;;7.50;2.80;;;27.50;45.00;;;;;;5094407;28;20036;-77
2023/05/30 09:22:32;;;;;;;5.32;1.90;;;27.70;44.60;;;;;;5094186;28;20031;-74
2023/05/30 09:25:00;;;;;;;3.97;2.17;;;27.30;44.30;;;;;;5094150;28;20036;-77
2023/05/30 09:27:28;;;;;;;3.50;2.55;;;27.30;44.60;;;;;;5094023;28;20032;-75
2023/05/30 09:29:55;;;;;;;2.97;2.30;;;27.30;44.60;;;;;;5094047;28;20081;-72
2023/05/30 09:32:28;;;;;;;4.43;2.78;;;27.10;44.60;;;;;;5093829;28;20024;-75
2023/05/30 09:34:56;;;;;;;4.07;2.58;;;27.00;44.90;;;;;;5094028;28;20020;-75
2023/05/30 09:37:23;;;;;;;5.20;2.03;;;27.10;45.70;;;;;;5092364;28;20040;-74
2023/05/30 09:40:06;;;;;;;3.90;2.03;;;27.00;46.00;;;;;;5093913;28;20039;-75
2023/05/30 09:42:39;;;;;;;2.08;1.88;;;27.00;46.70;;;;;;5073298;28;20078;-74
2023/05/30 09:45:13;;;;;;;3.72;2.50;;;26.90;46.20;;;;;;5071713;28;20044;-70
2023/05/30 09:47:41;;;;;;;7.82;2.40;;;26.90;46.40;;;;;;5080813;28;20040;-73
2023/05/30 09:50:08;;;;;;;3.20;2.10;;;26.90;46.20;;;;;;5074382;28;20063;-74
2023/05/30 09:52:36;;;;;;;3.20;2.67;;;26.80;46.90;;;;;;5074272;28;20051;-74
2023/05/30 09:55:05;;;;;;;2.83;2.40;;;26.90;47.40;;;;;;5090850;28;20485;-72
2023/05/30 09:57:37;;;;;;;3.75;2.15;;;26.80;47.20;;;;;;5073464;28;20028;-72
2023/05/30 10:00:09;;;;;;;5.40;2.40;;;26.80;46.70;;;;;;5091166;28;20440;-74
2023/05/30 10:02:36;;;;;;;;;;;26.80;46.70;;;;;;5091356;28;20044;-74
2023/05/30 10:05:04;;;;;;;6.47;2.92;;;26.80;47.20;;;;;;5090801;28;20377;-75
2023/05/30 10:07:31;;;;;;;5.20;2.58;;;27.00;52.50;;;;;;5090768;28;20048;-74
2023/05/30 10:09:58;;;;;;;5.07;2.63;;;27.40;57.20;;;;;;5090823;28;20034;-73
2023/05/30 10:12:24;;;;;;;2.15;1.98;;;28.00;55.30;;;;;;5090785;28;20059;-72
2023/05/30 10:14:50;;;;;;;2.22;2.03;;;28.20;47.70;;;;;;5090413;28;20036;-72
2023/05/30 10:17:22;;;;;;;4.32;1.88;;;27.90;45.90;;;;;;5090466;28;20040;-72
2023/05/30 10:19:54;;;;;;;6.25;2.70;;;27.90;49.70;;;;;;5073325;28;20484;-75
2023/05/30 10:22:23;;;;;;;7.38;3.25;;;27.90;53.80;;;;;;5090444;28;20075;-74
2023/05/30 10:24:51;;;;;;;7.47;2.67;;;28.00;55.10;;;;;;5091261;28;20416;-75
2023/05/30 10:27:27;;;;;;;2.53;2.00;;;28.00;49.50;;;;;;5092791;28;20093;-72
2023/05/30 10:30:05;;;;;;;6.75;2.25;;;27.80;48.00;;;;;;5092765;28;20048;-73
2023/05/30 10:32:34;;;;;;;2.70;2.13;;;27.60;47.30;;;;;;5091541;28;20410;-75
2023/05/30 10:35:08;;;;;;;4.00;2.53;;;27.70;47.00;;;;;;5092825;28;20067;-74
2023/05/30 10:37:36;;;;;;;5.97;2.67;;;27.50;47.10;;;;;;5093060;28;20544;-73
2023/05/30 10:40:16;;;;;;;3.13;2.25;;;27.50;47.10;;;;;;5092610;28;20040;-74
2023/05/30 10:43:06;;;;;;;3.58;2.33;;;27.40;47.60;;;;;;5092710;28;20115;-74
2023/05/30 10:46:12;;;;;;;3.08;2.20;;;27.30;47.60;;;;;;5091580;28;20468;-73
2023/05/30 10:49:13;;;;;;;3.08;2.45;;;27.20;48.10;;;;;;5029756;28;20033;-72
2023/05/30 10:52:03;;;;;;;3.53;2.53;;;27.30;48.20;;;;;;4989894;28;20092;-72
2023/05/30 10:54:33;;;;;;;3.70;2.80;;;27.20;48.00;;;;;;4990255;28;20078;-72
2023/05/30 10:57:01;;;;;;;3.95;2.70;;;27.10;48.20;;;;;;5006461;28;20030;-75
2023/05/30 10:59:28;;;;;;;2.90;2.20;;;26.90;47.70;;;;;;4990417;28;20394;-74
2023/05/30 11:02:00;;;;;;;3.10;2.00;;;27.00;49.20;;;;;;4974103;28;20181;-73
2023/05/30 11:04:32;;;;;;;;;;;27.00;49.20;;;;;;4990655;28;20097;-75
2023/05/30 11:06:58;;;;;;;7.68;2.75;;;26.90;48.60;;;;;;4989943;28;19916;-74
2023/05/30 11:09:25;;;;;;;7.47;2.70;;;26.80;48.40;;;;;;4990205;28;20053;-74
2023/05/30 11:11:56;;;;;;;2.17;1.58;;;26.80;48.90;;;;;;4990208;28;20050;-76
2023/05/30 11:14:27;;;;;;;2.90;2.08;;;26.90;48.80;;;;;;4990168;28;20057;-74
2023/05/30 11:17:05;;;;;;;3.78;2.13;;;26.90;48.80;;;;;;4989961;28;20072;-74
2023/05/30 11:19:48;;;;;;;3.47;2.47;;;26.80;48.50;;;;;;4989584;28;20487;-74
2023/05/30 11:22:20;;;;;;;2.63;2.42;;;26.70;48.60;;;;;;4989871;28;20087;-73
2023/05/30 11:24:46;;;;;;;2.50;1.95;;;26.80;48.40;;;;;;4993060;28;20039;-73
2023/05/30 11:27:15;;;;;;;6.30;2.55;;;26.80;48.40;;;;;;5048934;28;20052;-74
2023/05/30 11:29:53;;;;;;;4.88;1.95;;;26.80;48.40;;;;;;5069147;28;20052;-74
2023/05/30 11:32:22;;;;;;;5.03;2.33;;;26.70;48.30;;;;;;5069242;28;20048;-73
2023/05/30 11:34:58;;;;;;;4.65;2.20;;;26.70;48.30;;;;;;5069062;28;20064;-75
2023/05/30 11:37:25;;;;;;;3.78;2.15;;;26.80;48.70;;;;;;5048733;28;20102;-73
2023/05/30 11:39:57;;;;;;;4.50;2.20;;;26.60;48.70;;;;;;5054487;28;20064;-75
2023/05/30 11:42:24;;;;;;;3.55;1.80;;;26.60;48.80;;;;;;5068911;28;20090;-74
2023/05/30 11:44:50;;;;;;;5.45;2.70;;;26.70;48.80;;;;;;5069214;28;20072;-73
2023/05/30 11:47:18;;;;;;;3.55;1.98;;;26.70;48.70;;;;;;5068845;28;20052;-73
2023/05/30 11:49:46;;;;;;;2.78;2.00;;;26.70;48.80;;;;;;5069101;28;20530;-74
2023/05/30 11:52:13;;;;;;;3.22;1.73;;;26.60;48.50;;;;;;5068876;28;20045;-74
2023/05/30 11:54:41;;;;;;;2.58;1.70;;;26.60;49.20;;;;;;5048939;28;20480;-73
2023/05/30 11:57:11;;;;;;;5.07;2.00;;;26.50;49.10;;;;;;5048522;28;20041;-73
2023/05/30 11:59:42;;;;;;;4.57;3.17;;;26.50;49.10;;;;;;5032101;28;20076;-73
2023/05/30 12:02:08;;;;;;;4.70;1.67;;;26.40;49.60;;;;;;5048263;28;20040;-72
2023/05/30 12:04:37;;;;;;;3.67;2.22;;;26.50;51.60;;;;;;5031507;28;20063;-75
2023/05/30 12:07:05;;;;;;;2.15;1.95;;;26.50;52.70;;;;;;5031710;28;20044;-73
2023/05/30 12:09:41;;;;;;;5.70;1.80;;;26.40;52.50;;;;;;5029376;28;20045;-72
2023/05/30 12:12:08;;;;;;;5.60;2.63;;;26.50;51.80;;;;;;5028735;28;20505;-74
2023/05/30 12:15:01;;;;;;;3.92;2.50;;;26.40;51.30;;;;;;5028790;28;20049;-74
2023/05/30 12:17:28;;;;;;;9.82;2.28;;;26.50;51.00;;;;;;5050772;28;20048;-72
2023/05/30 12:20:06;;;;;;;8.50;2.33;;;26.40;50.90;;;;;;5056088;28;20040;-76
2023/05/30 12:22:32;;;;;;;2.10;1.70;;;26.50;50.70;;;;;;5031598;28;20057;-72
2023/05/30 12:24:58;;;;;;;5.90;2.50;;;26.40;50.70;;;;;;5052694;28;20448;-70
2023/05/30 12:27:26;;;;;;;5.10;1.90;;;26.50;50.60;;;;;;5068242;28;20367;-73
2023/05/30 12:29:53;;;;;;;5.78;1.95;;;26.40;50.50;;;;;;5052016;28;20051;-73
2023/05/30 12:32:23;;;;;;;1.70;1.60;;;26.50;50.20;;;;;;5052081;28;20043;-73
2023/05/30 12:34:49;;;;;;;7.45;2.55;;;26.60;50.20;;;;;;5068401;28;20037;-75
2023/05/30 12:37:17;;;;;;;4.60;1.80;;;26.40;48.30;;;;;;5068210;28;20149;-73
2023/05/30 12:39:55;;;;;;;2.42;2.13;;;26.40;50.60;;;;;;5068198;28;20551;-73
2023/05/30 12:42:26;;;;;;;8.35;2.15;;;26.50;50.50;;;;;;5088190;28;20105;-74
2023/05/30 12:44:54;;;;;;;2.38;2.08;;;26.50;50.60;;;;;;5088399;28;20048;-72
2023/05/30 12:47:21;;;;;;;2.72;2.13;;;26.50;50.70;;;;;;5088452;28;20418;-73
2023/05/30 12:49:48;;;;;;;6.53;2.15;;;26.60;50.70;;;;;;5088299;28;20040;-72
2023/05/30 12:52:16;;;;;;;5.20;2.30;;;26.40;50.90;;;;;;5090664;28;20030;-71
2023/05/30 12:54:42;;;;;;;7.70;2.38;;;26.30;51.40;;;;;;5091253;28;20043;-71
2023/05/30 12:57:10;;;;;;;2.90;2.03;;;26.50;51.30;;;;;;5090794;28;20196;-77